createdAt,value
2022-10-16T00:01:12.644Z,11.87
2022-10-16T00:03:40.398Z,12.03
2022-10-16T00:06:07.735Z,11.47
2022-10-16T00:08:35.254Z,11.47
2022-10-16T00:11:06.774Z,11.23
2022-10-16T00:13:34.685Z,11.73
2022-10-16T00:16:02.565Z,11.30
2022-10-16T00:18:29.731Z,10.77
2022-10-16T00:20:57.376Z,11.60
2022-10-16T00:23:24.273Z,12.33
2022-10-16T00:26:01.565Z,10.90
2022-10-16T00:28:28.664Z,12.17
2022-10-16T00:30:56.011Z,11.23
2022-10-16T00:33:23.290Z,12.93
2022-10-16T00:35:51.255Z,12.43
2022-10-16T00:38:18.307Z,11.60
2022-10-16T00:40:45.227Z,11.90
2022-10-16T00:43:33.632Z,13.17
2022-10-16T00:46:04.950Z,12.70
2022-10-16T00:48:32.033Z,12.03
2022-10-16T00:50:59.534Z,11.87
2022-10-16T00:53:26.383Z,10.33
2022-10-16T00:55:53.294Z,12.73
2022-10-16T00:58:20.945Z,11.57
2022-10-16T01:00:47.862Z,12.07
2022-10-16T01:03:31.609Z,11.90
2022-10-16T01:06:03.186Z,10.77
2022-10-16T01:08:43.185Z,11.03
2022-10-16T01:11:34.140Z,10.87
2022-10-16T01:14:03.343Z,12.23
2022-10-16T01:16:33.919Z,11.50
2022-10-16T01:19:13.486Z,11.80
2022-10-16T01:21:43.036Z,11.23
2022-10-16T01:24:13.210Z,10.73
2022-10-16T01:26:58.283Z,11.67
2022-10-16T01:29:28.242Z,11.83
2022-10-16T01:31:58.104Z,11.77
2022-10-16T01:34:39.629Z,11.93
2022-10-16T01:37:13.115Z,11.87
2022-10-16T01:39:41.771Z,11.07
2022-10-16T01:42:18.123Z,11.43
2022-10-16T01:44:46.763Z,12.00
2022-10-16T01:47:14.231Z,11.53
2022-10-16T01:49:42.254Z,11.43
2022-10-16T01:52:14.887Z,12.40
2022-10-16T01:54:43.695Z,11.90
2022-10-16T01:57:11.354Z,11.57
2022-10-16T01:59:45.011Z,11.83
2022-10-16T02:02:12.611Z,11.53
2022-10-16T02:04:41.612Z,11.00
2022-10-16T02:07:08.552Z,10.37
2022-10-16T02:09:35.895Z,10.67
2022-10-16T02:12:06.471Z,10.90
2022-10-16T02:14:33.590Z,11.40
2022-10-16T02:17:00.463Z,11.27
2022-10-16T02:19:27.254Z,12.40
2022-10-16T02:22:02.155Z,11.93
2022-10-16T02:24:37.876Z,10.77
2022-10-16T02:27:23.478Z,10.67
2022-10-16T02:29:53.163Z,11.40
2022-10-16T02:32:24.502Z,11.27
2022-10-16T02:34:52.430Z,11.07
2022-10-16T02:37:19.904Z,11.47
2022-10-16T02:39:46.710Z,12.20
2022-10-16T02:42:14.269Z,11.10
2022-10-16T02:44:41.061Z,11.60
2022-10-16T02:47:07.926Z,11.77
2022-10-16T02:49:34.779Z,11.33
2022-10-16T02:52:01.661Z,10.80
2022-10-16T02:54:28.399Z,11.50
2022-10-16T02:56:55.377Z,10.80
2022-10-16T02:59:22.312Z,10.53
2022-10-16T03:01:49.182Z,11.33
2022-10-16T03:04:16.300Z,10.73
2022-10-16T03:06:43.180Z,10.67
2022-10-16T03:09:10.025Z,10.67
2022-10-16T03:11:36.959Z,11.40
2022-10-16T03:14:03.716Z,10.83
2022-10-16T03:16:30.683Z,11.70
2022-10-16T03:18:57.476Z,11.30
2022-10-16T03:21:24.333Z,10.60
2022-10-16T03:23:51.179Z,11.37
2022-10-16T03:26:18.028Z,11.37
2022-10-16T03:28:44.877Z,11.20
2022-10-16T03:31:11.833Z,12.03
2022-10-16T03:33:38.595Z,11.63
2022-10-16T03:36:05.524Z,11.63
2022-10-16T03:38:32.335Z,10.30
2022-10-16T03:40:59.183Z,10.67
2022-10-16T03:43:26.086Z,10.70
2022-10-16T03:45:52.851Z,10.17
2022-10-16T03:48:20.477Z,10.87
2022-10-16T03:50:49.260Z,10.23
2022-10-16T03:53:16.383Z,11.33
2022-10-16T03:55:43.464Z,10.63
2022-10-16T03:58:10.661Z,11.70
2022-10-16T04:00:40.918Z,10.93
2022-10-16T04:03:07.822Z,10.90
2022-10-16T04:05:35.307Z,11.33
2022-10-16T04:08:02.188Z,12.37
2022-10-16T04:10:29.047Z,11.40
2022-10-16T04:12:57.061Z,12.27
2022-10-16T04:15:24.206Z,11.63
2022-10-16T04:17:51.675Z,12.53
2022-10-16T04:20:18.779Z,12.07
2022-10-16T04:22:45.712Z,12.43
2022-10-16T04:25:13.036Z,12.43
2022-10-16T04:27:42.281Z,11.90
2022-10-16T04:30:12.246Z,12.20
2022-10-16T04:32:38.995Z,11.57
2022-10-16T04:35:05.998Z,10.73
2022-10-16T04:37:32.920Z,10.67
2022-10-16T04:39:59.661Z,11.67
2022-10-16T04:42:26.575Z,12.40
2022-10-16T04:44:53.312Z,12.03
2022-10-16T04:47:20.781Z,11.50
2022-10-16T04:49:47.647Z,12.27
2022-10-16T04:52:14.447Z,12.17
2022-10-16T04:54:42.006Z,12.47
2022-10-16T04:57:08.762Z,12.20
2022-10-16T04:59:35.620Z,11.03
2022-10-16T05:02:02.587Z,11.40
2022-10-16T05:04:29.363Z,11.33
2022-10-16T05:06:56.212Z,12.00
2022-10-16T05:09:23.159Z,11.83
2022-10-16T05:11:50.017Z,10.37
2022-10-16T05:14:16.941Z,10.87
2022-10-16T05:16:43.765Z,11.33
2022-10-16T05:19:27.643Z,10.27
2022-10-16T05:21:55.232Z,10.83
2022-10-16T05:24:22.013Z,11.67
2022-10-16T05:26:48.959Z,9.90
2022-10-16T05:29:15.721Z,10.03
2022-10-16T05:31:42.706Z,9.70
2022-10-16T05:34:09.559Z,9.50
2022-10-16T05:36:36.636Z,10.33
2022-10-16T05:39:03.714Z,8.87
2022-10-16T05:41:30.618Z,10.13
2022-10-16T05:43:57.382Z,9.10
2022-10-16T05:46:24.332Z,8.80
2022-10-16T05:48:53.379Z,9.87
2022-10-16T05:51:20.182Z,9.90
2022-10-16T05:53:46.998Z,8.77
2022-10-16T05:56:14.067Z,5.37
2022-10-16T05:58:41.750Z,5.60
2022-10-16T06:01:13.296Z,8.23
2022-10-16T06:03:40.368Z,7.93
2022-10-16T06:06:17.378Z,8.17
2022-10-16T06:08:44.982Z,9.33
2022-10-16T06:11:12.703Z,9.80
2022-10-16T06:13:40.216Z,5.43
2022-10-16T06:16:07.382Z,9.87
2022-10-16T06:18:34.165Z,4.83
2022-10-16T06:21:00.987Z,8.73
2022-10-16T06:23:29.434Z,10.33
2022-10-16T06:26:04.914Z,9.27
2022-10-16T06:28:31.772Z,9.57
2022-10-16T06:31:05.626Z,8.77
2022-10-16T06:33:35.556Z,8.07
2022-10-16T06:36:05.867Z,9.87
2022-10-16T06:38:33.176Z,9.70
2022-10-16T06:41:00.054Z,6.63
2022-10-16T06:43:27.111Z,7.13
2022-10-16T06:45:57.590Z,9.87
2022-10-16T06:48:25.062Z,9.27
2022-10-16T06:50:58.178Z,7.93
2022-10-16T06:53:25.394Z,9.13
2022-10-16T06:55:52.142Z,9.10
2022-10-16T06:58:19.054Z,4.93
2022-10-16T07:00:45.886Z,7.60
2022-10-16T07:03:13.120Z,8.47
2022-10-16T07:05:40.475Z,8.13
2022-10-16T07:08:07.458Z,5.90
2022-10-16T07:10:34.583Z,8.87
2022-10-16T07:13:01.520Z,9.23
2022-10-16T07:15:28.375Z,9.50
2022-10-16T07:17:55.294Z,10.10
2022-10-16T07:20:22.079Z,4.77
2022-10-16T07:22:48.912Z,9.40
2022-10-16T07:25:15.766Z,8.93
2022-10-16T07:27:42.870Z,6.63
2022-10-16T07:30:09.814Z,9.20
2022-10-16T07:32:36.662Z,7.50
2022-10-16T07:35:03.553Z,6.50
2022-10-16T07:37:30.366Z,10.27
2022-10-16T07:39:58.067Z,10.10
2022-10-16T07:42:24.884Z,7.90
2022-10-16T07:44:51.836Z,8.43
2022-10-16T07:47:18.802Z,8.10
2022-10-16T07:49:45.657Z,8.90
2022-10-16T07:52:12.488Z,10.17
2022-10-16T07:54:39.266Z,6.37
2022-10-16T07:57:06.143Z,9.63
2022-10-16T07:59:32.905Z,9.30
2022-10-16T08:01:59.746Z,9.60
2022-10-16T08:04:26.595Z,10.40
2022-10-16T08:06:53.448Z,9.87
2022-10-16T08:09:20.282Z,8.27
2022-10-16T08:11:47.232Z,9.33
2022-10-16T08:14:14.033Z,9.47
2022-10-16T08:16:40.915Z,10.63
2022-10-16T08:19:07.948Z,10.73
2022-10-16T08:21:34.846Z,10.47
2022-10-16T08:24:01.681Z,10.83
2022-10-16T08:26:28.665Z,7.97
2022-10-16T08:28:56.183Z,10.53
2022-10-16T08:31:23.060Z,11.97
2022-10-16T08:33:50.023Z,11.43
2022-10-16T08:36:17.311Z,12.03
2022-10-16T08:38:44.575Z,10.63
2022-10-16T08:41:11.404Z,11.27
2022-10-16T08:43:53.329Z,10.67
2022-10-16T08:46:29.131Z,10.03
2022-10-16T08:48:58.193Z,10.70
2022-10-16T08:51:26.086Z,11.40
2022-10-16T08:53:53.012Z,11.77
2022-10-16T08:56:19.920Z,11.20
2022-10-16T09:01:20.972Z,10.80
2022-10-16T09:04:06.863Z,10.33
2022-10-16T09:06:40.858Z,10.63
2022-10-16T09:09:13.438Z,11.10
2022-10-16T09:11:46.400Z,11.23
2022-10-16T09:14:13.219Z,10.47
2022-10-16T09:16:46.055Z,10.67
2022-10-16T09:19:16.111Z,11.50
2022-10-16T09:21:44.392Z,10.87
2022-10-16T09:24:14.844Z,10.33
2022-10-16T09:26:41.767Z,11.60
2022-10-16T09:29:10.670Z,5.63
2022-10-16T09:31:38.644Z,10.30
2022-10-16T09:34:07.405Z,10.60
2022-10-16T09:36:42.497Z,10.23
2022-10-16T09:39:10.616Z,9.53
2022-10-16T09:41:38.494Z,8.63
2022-10-16T09:44:07.438Z,9.93
2022-10-16T09:46:35.412Z,10.00
2022-10-16T09:49:04.067Z,6.17
2022-10-16T09:51:36.605Z,10.73
2022-10-16T09:54:09.627Z,10.87
2022-10-16T09:56:37.889Z,10.23
2022-10-16T09:59:10.151Z,8.23
2022-10-16T10:01:39.418Z,9.67
2022-10-16T10:04:06.663Z,10.80
2022-10-16T10:06:39.383Z,10.00
2022-10-16T10:09:06.407Z,9.60
2022-10-16T10:11:39.256Z,11.50
2022-10-16T10:14:26.383Z,8.07
2022-10-16T10:17:02.482Z,8.53
2022-10-16T10:19:32.675Z,8.73
2022-10-16T10:21:59.712Z,11.90
2022-10-16T10:24:26.705Z,9.57
2022-10-16T10:27:04.508Z,10.70
2022-10-16T10:29:46.655Z,10.57
2022-10-16T10:32:22.420Z,10.27
2022-10-16T10:34:52.922Z,12.90
2022-10-16T10:37:43.478Z,11.13
2022-10-16T10:40:10.463Z,9.67
2022-10-16T10:42:37.196Z,11.73
2022-10-16T10:45:17.344Z,6.73
2022-10-16T10:48:03.040Z,11.27
2022-10-16T10:50:48.535Z,9.73
2022-10-16T10:53:24.359Z,10.97
2022-10-16T10:56:14.579Z,9.93
2022-10-16T10:59:07.508Z,7.43
2022-10-16T11:01:40.413Z,12.03
2022-10-16T11:04:16.828Z,11.10
2022-10-16T11:09:34.265Z,9.17
2022-10-16T11:12:03.445Z,10.23
2022-10-16T11:14:33.099Z,10.23
2022-10-16T11:17:05.476Z,8.37
2022-10-16T11:19:38.530Z,10.73
2022-10-16T11:22:17.727Z,7.27
2022-10-16T11:24:51.064Z,11.20
2022-10-16T11:27:20.970Z,10.77
2022-10-16T11:29:55.511Z,10.30
2022-10-16T11:32:25.330Z,10.80
2022-10-16T11:34:55.270Z,8.63
2022-10-16T11:37:25.348Z,9.13
2022-10-16T11:39:55.130Z,11.20
2022-10-16T11:42:33.067Z,10.60
2022-10-16T11:45:09.205Z,11.30
2022-10-16T11:47:59.387Z,8.47
2022-10-16T11:50:31.622Z,8.87
2022-10-16T11:53:16.945Z,7.83
2022-10-16T11:55:46.945Z,10.67
2022-10-16T11:58:30.034Z,8.77
2022-10-16T12:00:56.961Z,10.47
2022-10-16T12:03:26.814Z,8.73
2022-10-16T12:05:59.700Z,9.60
2022-10-16T12:08:27.014Z,11.07
2022-10-16T12:10:53.964Z,9.33
2022-10-16T12:13:31.530Z,10.70
2022-10-16T12:16:13.943Z,10.40
2022-10-16T12:18:41.693Z,11.07
2022-10-16T12:21:09.318Z,9.47
2022-10-16T12:23:40.347Z,7.17
2022-10-16T12:26:07.435Z,7.40
2022-10-16T12:28:34.892Z,6.10
2022-10-16T12:31:03.402Z,6.93
2022-10-16T12:33:42.098Z,7.40
2022-10-16T12:36:15.694Z,4.30
2022-10-16T12:38:45.661Z,6.27
2022-10-16T12:41:13.531Z,7.60
2022-10-16T12:43:43.615Z,8.23
2022-10-16T12:46:10.552Z,8.17
2022-10-16T12:48:48.963Z,9.77
2022-10-16T12:51:31.068Z,10.00
2022-10-16T12:54:01.929Z,10.37
2022-10-16T12:56:37.816Z,9.60
2022-10-16T12:59:05.321Z,7.73
2022-10-16T13:01:49.010Z,6.00
2022-10-16T13:04:33.153Z,9.90
2022-10-16T13:07:15.363Z,9.33
2022-10-16T13:09:50.206Z,7.80
2022-10-16T13:12:24.354Z,8.50
2022-10-16T13:15:06.599Z,7.57
2022-10-16T13:17:39.898Z,9.67
2022-10-16T13:20:16.831Z,7.00
2022-10-16T13:22:46.859Z,7.83
2022-10-16T13:25:32.459Z,7.13
2022-10-16T13:28:01.765Z,8.03
2022-10-16T13:30:31.112Z,9.03
2022-10-16T13:33:15.952Z,9.37
2022-10-16T13:35:51.887Z,9.70
2022-10-16T13:38:21.101Z,9.83
2022-10-16T13:41:07.433Z,5.30
2022-10-16T13:43:40.353Z,10.03
2022-10-16T13:46:08.648Z,10.27
2022-10-16T13:48:35.470Z,10.23
2022-10-16T13:51:04.907Z,9.40
2022-10-16T13:53:35.418Z,8.07
2022-10-16T13:56:04.083Z,6.10
2022-10-16T13:58:31.651Z,7.97
2022-10-16T14:01:02.942Z,6.83
2022-10-16T14:03:30.620Z,8.10
2022-10-16T14:06:04.716Z,3.83
2022-10-16T14:08:31.985Z,10.80
2022-10-16T14:11:00.084Z,7.83
2022-10-16T14:13:31.637Z,8.47
2022-10-16T14:16:01.303Z,8.27
2022-10-16T14:18:33.336Z,10.93
2022-10-16T14:21:07.762Z,6.87
2022-10-16T14:23:39.321Z,4.97
2022-10-16T14:26:14.405Z,10.73
2022-10-16T14:28:42.371Z,9.83
2022-10-16T14:31:28.305Z,9.70
2022-10-16T14:33:55.655Z,11.40
2022-10-16T14:36:23.166Z,9.97
2022-10-16T14:39:04.355Z,8.77
2022-10-16T14:41:32.701Z,10.77
2022-10-16T14:44:04.855Z,10.27
2022-10-16T14:46:36.819Z,10.00
2022-10-16T14:49:24.159Z,11.70
2022-10-16T14:51:51.564Z,11.57
2022-10-16T14:54:19.534Z,11.27
2022-10-16T14:56:53.084Z,10.57
2022-10-16T14:59:40.183Z,11.23
2022-10-16T15:02:19.898Z,11.47
2022-10-16T15:04:46.842Z,11.27
2022-10-16T15:07:14.138Z,8.50
2022-10-16T15:09:45.055Z,11.03
2022-10-16T15:12:15.503Z,11.43
2022-10-16T15:14:42.304Z,10.70
2022-10-16T15:17:12.204Z,11.43
2022-10-16T15:19:39.712Z,11.73
2022-10-16T15:22:06.634Z,12.63
2022-10-16T15:24:33.607Z,11.43
2022-10-16T15:27:00.710Z,11.83
2022-10-16T15:29:27.480Z,10.20
2022-10-16T15:31:54.378Z,10.23
2022-10-16T15:34:21.326Z,10.63
2022-10-16T15:36:48.231Z,11.50
2022-10-16T15:39:19.253Z,10.90
2022-10-16T15:41:52.107Z,12.20
2022-10-16T15:44:19.979Z,10.83
2022-10-16T15:46:47.757Z,11.10
2022-10-16T15:49:14.857Z,10.70
2022-10-16T15:51:42.451Z,11.53
2022-10-16T15:54:09.474Z,11.37
2022-10-16T15:56:38.353Z,11.57
2022-10-16T15:59:05.540Z,11.93
2022-10-16T16:01:34.118Z,11.40
2022-10-16T16:04:01.054Z,11.07
2022-10-16T16:06:27.970Z,11.73
2022-10-16T16:08:54.834Z,11.10
2022-10-16T16:11:23.495Z,11.13
2022-10-16T16:13:50.335Z,10.93
2022-10-16T16:16:17.914Z,11.50
2022-10-16T16:18:46.004Z,10.40
2022-10-16T16:21:15.022Z,11.17
2022-10-16T16:23:41.861Z,10.50
2022-10-16T16:26:08.915Z,10.73
2022-10-16T16:28:36.101Z,11.27
2022-10-16T16:31:03.490Z,10.87
2022-10-16T16:33:30.433Z,10.83
2022-10-16T16:35:58.246Z,11.90
2022-10-16T16:38:25.066Z,11.20
2022-10-16T16:40:55.530Z,11.70
2022-10-16T16:43:27.364Z,12.03
2022-10-16T16:45:55.107Z,12.50
2022-10-16T16:48:22.257Z,12.47
2022-10-16T16:50:49.201Z,11.10
2022-10-16T16:53:16.241Z,12.50
2022-10-16T16:55:43.017Z,12.93
2022-10-16T16:58:10.060Z,11.70
2022-10-16T17:00:36.891Z,12.43
2022-10-16T17:03:04.201Z,12.00
2022-10-16T17:05:31.043Z,11.63
2022-10-16T17:07:57.915Z,11.60
2022-10-16T17:10:24.673Z,12.17
2022-10-16T17:12:51.609Z,10.73
2022-10-16T17:15:18.687Z,10.83
2022-10-16T17:17:45.497Z,11.73
2022-10-16T17:20:12.408Z,12.70
2022-10-16T17:22:39.255Z,13.13
2022-10-16T17:25:08.019Z,12.30
2022-10-16T17:27:36.598Z,12.33
2022-10-16T17:30:04.361Z,12.83
2022-10-16T17:32:31.133Z,12.03
2022-10-16T17:34:58.081Z,12.27
2022-10-16T17:37:24.888Z,12.70
2022-10-16T17:39:52.608Z,12.13
2022-10-16T17:42:19.509Z,13.00
2022-10-16T17:44:46.341Z,12.97
2022-10-16T17:47:13.183Z,12.30
2022-10-16T17:49:40.151Z,12.87
2022-10-16T17:52:07.524Z,12.77
2022-10-16T17:54:34.372Z,12.40
2022-10-16T17:57:01.281Z,12.37
2022-10-16T17:59:29.513Z,12.63
2022-10-16T18:01:56.809Z,13.20
2022-10-16T18:04:23.783Z,13.90
2022-10-16T18:06:50.704Z,14.27
2022-10-16T18:09:18.594Z,13.50
2022-10-16T18:11:45.484Z,13.73
2022-10-16T18:14:13.518Z,13.80
2022-10-16T18:16:40.340Z,13.33
2022-10-16T18:19:07.442Z,14.30
2022-10-16T18:21:34.300Z,14.20
2022-10-16T18:24:01.734Z,15.10
2022-10-16T18:26:28.658Z,15.33
2022-10-16T18:28:56.873Z,15.47
2022-10-16T18:31:26.555Z,15.67
2022-10-16T18:33:54.475Z,15.30
2022-10-16T18:36:23.091Z,15.67
2022-10-16T18:38:50.322Z,16.47
2022-10-16T18:41:18.628Z,16.80
2022-10-16T18:43:45.479Z,17.33
2022-10-16T18:46:22.134Z,18.80
2022-10-16T18:48:49.391Z,16.27
2022-10-16T18:51:18.160Z,17.67
2022-10-16T18:53:46.166Z,15.67
2022-10-16T18:56:15.220Z,14.37
2022-10-16T18:58:43.310Z,14.20
2022-10-16T19:01:11.481Z,15.23
2022-10-16T19:03:43.964Z,14.97
2022-10-16T19:06:12.005Z,14.83
2022-10-16T19:08:39.159Z,14.50
2022-10-16T19:11:07.137Z,14.10
2022-10-16T19:13:34.180Z,16.20
2022-10-16T19:16:19.374Z,16.20
2022-10-16T19:18:47.678Z,15.40
2022-10-16T19:21:15.008Z,15.57
2022-10-16T19:23:42.260Z,14.27
2022-10-16T19:26:10.682Z,14.70
2022-10-16T19:28:38.130Z,14.83
2022-10-16T19:31:06.463Z,16.03
2022-10-16T19:33:33.618Z,16.27
2022-10-16T19:36:27.423Z,15.17
2022-10-16T19:38:55.485Z,14.17
2022-10-16T19:41:23.857Z,14.77
2022-10-16T19:43:50.990Z,14.83
2022-10-16T19:46:19.237Z,15.83
2022-10-16T19:48:46.480Z,15.83
2022-10-16T19:51:14.866Z,15.50
2022-10-16T19:53:42.088Z,16.10
2022-10-16T19:56:16.083Z,16.60
2022-10-16T19:58:43.614Z,14.90
2022-10-16T20:01:10.924Z,15.20
2022-10-16T20:03:39.608Z,15.63
2022-10-16T20:06:07.459Z,14.93
2022-10-16T20:08:35.424Z,15.33
2022-10-16T20:11:02.774Z,16.13
2022-10-16T20:13:29.651Z,15.30
2022-10-16T20:15:56.872Z,15.40
2022-10-16T20:18:23.741Z,14.87
2022-10-16T20:20:52.422Z,15.03
2022-10-16T20:23:19.385Z,14.97
2022-10-16T20:25:46.477Z,14.93
2022-10-16T20:28:15.449Z,15.20
2022-10-16T20:30:43.920Z,14.03
2022-10-16T20:33:11.296Z,15.33
2022-10-16T20:35:42.527Z,14.97
2022-10-16T20:38:09.481Z,15.43
2022-10-16T20:40:37.359Z,15.50
2022-10-16T20:43:04.242Z,15.60
2022-10-16T20:45:32.022Z,14.07
2022-10-16T20:47:58.803Z,14.40
2022-10-16T20:50:29.390Z,15.80
2022-10-16T20:52:57.097Z,14.97
2022-10-16T20:55:24.390Z,14.80
2022-10-16T20:57:51.477Z,14.83
2022-10-16T21:00:18.710Z,15.13
2022-10-16T21:02:45.533Z,14.73
2022-10-16T21:05:12.495Z,14.83
2022-10-16T21:07:39.258Z,15.27
2022-10-16T21:10:06.335Z,14.93
2022-10-16T21:12:33.276Z,15.23
2022-10-16T21:15:14.409Z,15.00
2022-10-16T21:17:42.030Z,15.40
2022-10-16T21:20:09.037Z,19.90
2022-10-16T21:22:36.946Z,19.50
2022-10-16T21:25:04.031Z,17.93
2022-10-16T21:27:30.886Z,20.40
2022-10-16T21:29:57.668Z,18.83
2022-10-16T21:32:25.200Z,19.17
2022-10-16T21:34:52.131Z,15.23
2022-10-16T21:37:18.893Z,12.77
2022-10-16T21:39:45.962Z,15.97
2022-10-16T21:42:12.724Z,14.33
2022-10-16T21:44:40.403Z,14.67
2022-10-16T21:47:07.363Z,15.13
2022-10-16T21:49:34.541Z,15.37
2022-10-16T21:52:01.463Z,15.37
2022-10-16T21:54:28.345Z,15.50
2022-10-16T21:56:55.313Z,14.63
2022-10-16T21:59:22.213Z,15.10
2022-10-16T22:01:49.120Z,14.90
2022-10-16T22:04:16.733Z,16.27
2022-10-16T22:06:43.618Z,15.97
2022-10-16T22:09:14.310Z,15.93
2022-10-16T22:11:42.825Z,14.77
2022-10-16T22:14:16.801Z,14.67
2022-10-16T22:16:43.772Z,14.20
2022-10-16T22:19:11.068Z,14.60
2022-10-16T22:21:39.054Z,14.53
2022-10-16T22:24:06.623Z,12.73
2022-10-16T22:26:33.891Z,15.90
2022-10-16T22:29:00.681Z,14.70
2022-10-16T22:31:27.557Z,14.17
2022-10-16T22:33:58.826Z,14.23
2022-10-16T22:36:26.184Z,13.87
2022-10-16T22:38:53.555Z,13.90
2022-10-16T22:41:20.962Z,13.80
2022-10-16T22:43:48.988Z,14.60
2022-10-16T22:46:17.916Z,14.77
2022-10-16T22:48:44.802Z,15.30
2022-10-16T22:51:16.694Z,14.40
2022-10-16T22:53:45.278Z,13.83
2022-10-16T22:56:12.895Z,13.33
2022-10-16T22:58:39.852Z,13.40
2022-10-16T23:01:17.650Z,14.00
2022-10-16T23:03:44.543Z,12.57
2022-10-16T23:06:11.410Z,13.20
2022-10-16T23:08:38.677Z,13.50
2022-10-16T23:11:10.048Z,12.57
2022-10-16T23:13:37.965Z,13.17
2022-10-16T23:16:05.718Z,12.90
2022-10-16T23:18:34.685Z,13.23
2022-10-16T23:21:05.755Z,12.90
2022-10-16T23:23:32.564Z,12.57
2022-10-16T23:25:59.440Z,13.57
2022-10-16T23:28:26.264Z,13.00
2022-10-16T23:30:53.126Z,13.60
2022-10-16T23:33:19.966Z,13.87
2022-10-16T23:35:46.797Z,13.50
2022-10-16T23:38:13.582Z,12.50
2022-10-16T23:40:40.781Z,12.53
2022-10-16T23:43:07.710Z,12.30
2022-10-16T23:45:34.491Z,11.50
2022-10-16T23:48:01.357Z,12.90
2022-10-16T23:50:30.529Z,12.70
2022-10-16T23:52:57.444Z,11.70
2022-10-16T23:55:24.365Z,12.00
2022-10-16T23:57:51.331Z,11.23
